Time;durP1;ratioP1;P1;durP2;ratioP2;P2;SDS_P1;SDS_P2;PMS_P1;PMS_P2;Temp;Humidity;BMP_temperature;BMP_pressure;BME280_temperature;BME280_humidity;BME280_pressure;Samples;Min_cycle;Max_cycle;Signal;HPM_P1;HPM_P2
2024/01/19 00:01:05;;;;;;;1.63;0.30;;;;;;;-9.12;66.64;99203.72;4999301;28;20136;-74
2024/01/19 00:03:32;;;;;;;1.40;0.50;;;;;;;-9.15;66.81;99209.56;4999246;28;20053;-74
2024/01/19 00:05:59;;;;;;;0.68;0.20;;;;;;;-9.18;66.46;99214.53;4996716;28;20678;-73
2024/01/19 00:08:26;;;;;;;0.70;0.20;;;;;;;-9.21;66.75;99216.97;5000132;28;20128;-74
2024/01/19 00:10:54;;;;;;;1.55;0.30;;;;;;;-9.24;67.04;99224.47;5000643;28;20535;-74
2024/01/19 00:13:21;;;;;;;4.30;0.30;;;;;;;-9.27;67.25;99227.78;5001059;28;20129;-74
2024/01/19 00:15:48;;;;;;;1.10;0.40;;;;;;;-9.28;66.75;99232.78;4995130;28;20612;-74
2024/01/19 00:18:16;;;;;;;1.48;0.30;;;;;;;-9.31;66.93;99227.63;4994849;28;20140;-74
2024/01/19 00:20:43;;;;;;;0.65;0.20;;;;;;;-9.33;66.51;99231.78;4997580;28;20127;-74
2024/01/19 00:23:10;;;;;;;0.80;0.22;;;;;;;-9.36;66.53;99230.00;4996871;28;20059;-74
2024/01/19 00:25:37;;;;;;;0.43;0.20;;;;;;;-9.38;66.32;99234.16;4998131;28;20619;-73
2024/01/19 00:28:06;;;;;;;2.20;0.25;;;;;;;-9.41;67.02;99234.09;4997226;28;20096;-73
2024/01/19 00:30:33;;;;;;;2.10;0.20;;;;;;;-9.45;66.88;99222.13;4999979;28;20112;-74
2024/01/19 00:33:00;;;;;;;0.30;0.17;;;;;;;-9.46;66.58;99223.81;4993684;28;20576;-74
2024/01/19 00:35:27;;;;;;;0.60;0.20;;;;;;;-9.48;66.42;99229.63;4998703;28;20132;-74
2024/01/19 00:37:54;;;;;;;1.38;0.20;;;;;;;-9.51;66.20;99222.81;4997023;28;20576;-74
2024/01/19 00:40:21;;;;;;;0.35;0.20;;;;;;;-9.58;66.65;99218.34;4997691;28;20128;-74
2024/01/19 00:42:48;;;;;;;0.20;0.17;;;;;;;-9.56;67.00;99224.34;4998108;28;20561;-74
2024/01/19 00:45:16;;;;;;;2.85;0.30;;;;;;;-9.57;66.49;99230.19;4999563;28;20138;-73
2024/01/19 00:47:43;;;;;;;0.63;0.20;;;;;;;-9.62;66.37;99227.53;4994629;28;20125;-73
2024/01/19 00:50:10;;;;;;;1.13;0.30;;;;;;;-9.65;66.93;99232.50;4992872;28;20161;-75
2024/01/19 00:52:37;;;;;;;1.10;0.22;;;;;;;-9.66;67.13;99232.44;4998918;28;20141;-74
2024/01/19 00:55:05;;;;;;;5.00;0.22;;;;;;;-9.67;66.94;99248.44;4999833;28;20166;-75
2024/01/19 00:57:32;;;;;;;0.47;0.20;;;;;;;-9.71;66.72;99241.53;4998709;28;20129;-75
2024/01/19 00:59:59;;;;;;;0.55;0.20;;;;;;;-9.77;66.35;99237.13;5001145;28;20125;-74
2024/01/19 01:02:28;;;;;;;1.05;0.25;;;;;;;-9.75;66.43;99239.72;5002603;28;20129;-74
2024/01/19 01:04:55;;;;;;;1.48;0.40;;;;;;;-9.77;66.77;99241.34;5000486;28;20550;-73
2024/01/19 01:07:22;;;;;;;2.65;0.20;;;;;;;-9.79;66.72;99253.06;5004163;28;20137;-74
2024/01/19 01:09:49;;;;;;;0.38;0.30;;;;;;;-9.82;66.98;99263.97;4996174;28;20046;-74
2024/01/19 01:12:16;;;;;;;1.17;0.20;;;;;;;-9.88;66.99;99239.31;4999783;28;20129;-73
2024/01/19 01:14:43;;;;;;;0.50;0.20;;;;;;;-9.87;66.22;99256.22;5003489;28;20991;-73
2024/01/19 01:17:10;;;;;;;0.68;0.20;;;;;;;-9.90;66.69;99255.25;4998542;28;20484;-73
2024/01/19 01:19:38;;;;;;;0.73;0.20;;;;;;;-9.91;66.41;99254.38;5000254;28;20050;-73
2024/01/19 01:22:06;;;;;;;0.60;0.30;;;;;;;-9.94;67.01;99261.84;5001212;28;20125;-73
2024/01/19 01:24:33;;;;;;;0.82;0.20;;;;;;;-9.94;66.79;99258.47;4998915;28;20050;-74
2024/01/19 01:27:00;;;;;;;1.02;0.40;;;;;;;-9.96;66.65;99260.97;5001292;28;20568;-73
2024/01/19 01:29:27;;;;;;;3.33;0.20;;;;;;;-10.00;66.84;99256.59;5000121;28;20074;-73
2024/01/19 01:31:54;;;;;;;1.08;0.30;;;;;;;-10.02;66.76;99263.28;5000351;28;20468;-73
2024/01/19 01:34:21;;;;;;;0.60;0.22;;;;;;;-10.04;67.08;99259.81;5002390;28;20117;-73
2024/01/19 01:36:49;;;;;;;0.30;0.20;;;;;;;-10.07;66.46;99257.19;4999497;28;20104;-73
2024/01/19 01:39:16;;;;;;;0.40;0.20;;;;;;;-10.08;67.16;99260.50;5000779;28;20061;-74
2024/01/19 01:41:44;;;;;;;1.05;0.20;;;;;;;-10.11;66.87;99255.34;5002222;28;20100;-73
2024/01/19 01:44:11;;;;;;;0.45;0.20;;;;;;;-10.13;67.09;99257.84;5003310;28;20116;-74
2024/01/19 01:46:38;;;;;;;1.17;0.15;;;;;;;-10.15;67.11;99256.06;5000512;28;20481;-73
2024/01/19 01:49:05;;;;;;;0.52;0.20;;;;;;;-10.16;66.96;99262.78;4999102;28;20137;-73
2024/01/19 01:51:33;;;;;;;0.25;0.20;;;;;;;-10.18;66.30;99271.13;4999626;28;20049;-73
2024/01/19 01:54:02;;;;;;;1.05;0.30;;;;;;;-10.26;66.99;99264.94;5001270;28;20142;-73
2024/01/19 01:56:30;;;;;;;0.63;0.20;;;;;;;-10.24;67.05;99279.34;5000975;28;20290;-74
2024/01/19 01:58:57;;;;;;;0.63;0.15;;;;;;;-10.26;66.48;99272.50;4998938;28;20125;-77
2024/01/19 02:01:25;;;;;;;0.93;0.13;;;;;;;-10.27;67.13;99283.44;5008425;28;20038;-77
2024/01/19 02:03:55;;;;;;;0.55;0.20;;;;;;;-10.30;67.13;99282.53;5009770;28;20531;-77
2024/01/19 02:06:22;;;;;;;1.00;0.40;;;;;;;-10.31;66.95;99290.03;5001735;28;20070;-77
2024/01/19 02:08:49;;;;;;;0.20;0.10;;;;;;;-10.34;67.14;99295.84;4997015;28;20444;-77
2024/01/19 02:11:17;;;;;;;1.77;0.20;;;;;;;-10.35;66.91;99288.22;5000413;28;20128;-76
2024/01/19 02:13:44;;;;;;;0.25;0.13;;;;;;;-10.38;66.70;99291.50;5000348;28;20069;-77
2024/01/19 02:16:11;;;;;;;2.05;0.25;;;;;;;-10.39;67.04;99299.88;5001000;28;20082;-77
2024/01/19 02:18:38;;;;;;;2.95;0.30;;;;;;;-10.41;66.39;99306.53;5003516;28;20085;-77
2024/01/19 02:21:06;;;;;;;0.68;0.10;;;;;;;-10.45;66.92;99304.69;5003983;28;20081;-77
2024/01/19 02:23:37;;;;;;;0.65;0.20;;;;;;;-10.47;67.07;99306.31;5001902;28;20552;-78
2024/01/19 02:26:07;;;;;;;0.98;0.20;;;;;;;-10.47;66.88;99300.41;5001793;28;20533;-78
2024/01/19 02:28:34;;;;;;;3.08;0.20;;;;;;;-10.49;67.13;99309.59;4989867;28;20129;-78
2024/01/19 02:31:01;;;;;;;1.70;0.50;;;;;;;-10.52;66.68;99307.81;5006148;28;20104;-77
2024/01/19 02:33:28;;;;;;;0.40;0.20;;;;;;;-10.54;66.35;99314.47;5004346;28;20078;-78
2024/01/19 02:35:55;;;;;;;0.60;0.20;;;;;;;-10.57;66.89;99317.72;5008384;28;20085;-77
2024/01/19 02:38:22;;;;;;;2.45;0.22;;;;;;;-10.58;66.33;99322.75;4999033;28;20133;-78
2024/01/19 02:40:49;;;;;;;2.20;0.40;;;;;;;-10.64;66.24;99313.25;5001733;28;20081;-77
2024/01/19 02:43:17;;;;;;;1.02;0.30;;;;;;;-10.63;66.45;99319.19;5005075;28;20085;-77
2024/01/19 02:45:44;;;;;;;1.65;0.20;;;;;;;-10.64;66.72;99320.00;5006472;28;20149;-77
2024/01/19 02:48:12;;;;;;;0.43;0.20;;;;;;;-10.65;66.32;99328.34;5007766;28;20571;-77
2024/01/19 02:50:39;;;;;;;0.50;0.10;;;;;;;-10.66;66.96;99324.13;5002888;28;20101;-77
2024/01/19 02:53:06;;;;;;;0.73;0.28;;;;;;;-10.73;67.01;99321.34;4999919;28;20084;-77
2024/01/19 02:55:33;;;;;;;0.70;0.10;;;;;;;-10.77;66.45;99319.50;5004832;28;20125;-77
2024/01/19 02:58:00;;;;;;;0.98;0.20;;;;;;;-10.76;66.50;99327.94;5004226;28;20513;-77
2024/01/19 03:00:29;;;;;;;0.82;0.30;;;;;;;-10.79;66.93;99321.13;5003817;28;20525;-77
2024/01/19 03:02:56;;;;;;;1.60;0.20;;;;;;;-10.79;66.79;99330.34;5004934;28;20056;-77
2024/01/19 03:05:23;;;;;;;2.25;0.40;;;;;;;-10.82;66.88;99327.69;5006779;28;20137;-77
2024/01/19 03:07:50;;;;;;;0.15;0.10;;;;;;;-10.89;66.82;99321.56;5000081;28;20129;-77
2024/01/19 03:10:17;;;;;;;0.35;0.20;;;;;;;-10.85;66.28;99333.50;5003374;28;20125;-73
2024/01/19 03:12:44;;;;;;;0.15;0.10;;;;;;;-10.87;66.39;99335.13;4999860;28;20050;-73
2024/01/19 03:15:11;;;;;;;0.40;0.30;;;;;;;-10.88;66.70;99337.56;4999178;28;20078;-74
2024/01/19 03:17:39;;;;;;;2.15;0.30;;;;;;;-10.90;66.79;99340.03;5000328;28;20089;-73
2024/01/19 03:20:07;;;;;;;1.00;0.35;;;;;;;-10.94;66.68;99348.28;5003505;28;20117;-74
2024/01/19 03:22:34;;;;;;;1.10;0.20;;;;;;;-10.93;66.43;99352.56;5004636;28;20084;-73
2024/01/19 03:25:02;;;;;;;0.30;0.10;;;;;;;-10.96;67.00;99344.84;4995684;28;20137;-73
2024/01/19 03:27:29;;;;;;;1.40;0.10;;;;;;;-10.97;66.38;99350.69;5000940;28;20057;-73
2024/01/19 03:29:56;;;;;;;0.10;0.10;;;;;;;-10.98;66.50;99354.03;4995970;28;20544;-73
2024/01/19 03:32:23;;;;;;;1.75;0.40;;;;;;;-11.01;66.74;99351.38;4997602;28;20134;-74
2024/01/19 03:34:51;;;;;;;0.98;0.13;;;;;;;-10.99;66.85;99357.34;4998266;28;20049;-73
2024/01/19 03:37:18;;;;;;;0.90;0.20;;;;;;;-11.02;66.98;99352.16;4998991;28;20145;-74
2024/01/19 03:39:45;;;;;;;0.28;0.10;;;;;;;-11.04;66.48;99359.69;4996892;28;20124;-73
2024/01/19 03:42:12;;;;;;;0.45;0.10;;;;;;;-11.06;67.17;99358.75;4995168;28;20572;-74
2024/01/19 03:44:40;;;;;;;1.20;0.20;;;;;;;-11.06;66.42;99360.44;4995390;28;20129;-74
2024/01/19 03:47:07;;;;;;;4.90;0.30;;;;;;;-11.07;66.53;99363.78;5002607;28;20858;-73
2024/01/19 03:49:34;;;;;;;0.98;0.20;;;;;;;-11.09;66.62;99363.69;4998280;28;20471;-73
2024/01/19 03:52:04;;;;;;;0.35;0.10;;;;;;;-11.08;66.83;99377.19;4994320;28;20129;-73
2024/01/19 03:54:32;;;;;;;1.45;0.20;;;;;;;-11.10;66.26;99377.13;5000305;28;20147;-74
2024/01/19 03:57:01;;;;;;;0.55;0.20;;;;;;;-11.11;67.00;99372.00;4997910;28;20050;-73
2024/01/19 03:59:28;;;;;;;0.50;0.20;;;;;;;-11.13;66.93;99374.47;5001733;28;20065;-73
2024/01/19 04:01:55;;;;;;;0.88;0.10;;;;;;;-11.15;66.35;99376.06;4993730;28;21107;-74
2024/01/19 04:04:22;;;;;;;0.35;0.17;;;;;;;-11.16;66.54;99376.84;5002861;28;20142;-74
2024/01/19 04:06:49;;;;;;;2.58;0.20;;;;;;;-11.17;66.39;99382.72;5001577;28;20129;-73
2024/01/19 04:09:17;;;;;;;0.30;0.10;;;;;;;-11.21;66.50;99384.25;4999635;28;20527;-73
2024/01/19 04:11:45;;;;;;;0.93;0.20;;;;;;;-11.24;66.57;99374.03;4997505;28;20181;-74
2024/01/19 04:14:12;;;;;;;2.00;0.20;;;;;;;-11.22;66.72;99382.50;4999828;28;20149;-73
2024/01/19 04:16:40;;;;;;;2.15;0.20;;;;;;;-11.25;67.12;99379.84;4999001;28;20133;-72
2024/01/19 04:19:07;;;;;;;0.32;0.17;;;;;;;-11.27;66.69;99380.66;4996817;28;20479;-75
2024/01/19 04:21:34;;;;;;;0.50;0.13;;;;;;;-11.31;66.59;99377.13;4999564;28;20141;-74
2024/01/19 04:24:00;;;;;;;0.17;0.17;;;;;;;-11.32;66.27;99369.50;4999357;28;20086;-74
2024/01/19 04:26:28;;;;;;;0.93;0.20;;;;;;;-11.34;66.51;99378.66;4996936;28;20127;-74
2024/01/19 04:28:55;;;;;;;0.60;0.13;;;;;;;-11.35;66.41;99390.44;5000758;28;20058;-74
2024/01/19 04:31:22;;;;;;;0.63;0.20;;;;;;;-11.37;66.45;99381.91;4999252;28;20133;-75
2024/01/19 04:33:49;;;;;;;0.50;0.10;;;;;;;-11.40;66.83;99391.88;5000458;28;20069;-75
2024/01/19 04:36:17;;;;;;;0.43;0.10;;;;;;;-11.44;66.38;99398.47;5000995;28;20544;-75
2024/01/19 04:38:45;;;;;;;0.98;0.20;;;;;;;-11.49;66.62;99386.44;5001362;28;20050;-75
2024/01/19 04:41:12;;;;;;;0.65;0.20;;;;;;;-11.46;66.61;99396.69;5001991;28;20057;-75
2024/01/19 04:43:40;;;;;;;0.68;0.22;;;;;;;-11.48;66.30;99394.06;5004722;28;20129;-75
2024/01/19 04:46:07;;;;;;;0.98;0.10;;;;;;;-11.49;66.75;99407.50;4999001;28;20133;-74
2024/01/19 04:48:34;;;;;;;0.28;0.20;;;;;;;-11.50;66.79;99410.84;4999507;28;20533;-75
2024/01/19 04:51:01;;;;;;;0.28;0.10;;;;;;;-11.51;66.43;99408.22;5001247;28;20144;-75
2024/01/19 04:53:28;;;;;;;2.83;0.20;;;;;;;-11.54;66.46;99408.09;5001120;28;20469;-75
2024/01/19 04:55:55;;;;;;;2.47;0.20;;;;;;;-11.56;66.87;99410.53;5000622;28;20077;-75
2024/01/19 04:58:22;;;;;;;0.30;0.10;;;;;;;-11.58;66.57;99421.41;5000427;28;20556;-75
2024/01/19 05:00:50;;;;;;;0.57;0.20;;;;;;;-11.62;66.40;99404.38;5002903;28;20780;-75
2024/01/19 05:03:17;;;;;;;0.45;0.10;;;;;;;-11.63;66.94;99408.56;5003144;28;20137;-74
2024/01/19 05:05:44;;;;;;;0.82;0.30;;;;;;;-11.67;66.53;99410.09;5001314;28;20042;-75
2024/01/19 05:08:11;;;;;;;1.27;0.20;;;;;;;-11.66;66.41;99429.47;5003685;28;20562;-75
2024/01/19 05:10:38;;;;;;;0.40;0.25;;;;;;;-11.71;66.57;99425.88;5001783;28;20084;-75
2024/01/19 05:13:05;;;;;;;0.10;0.10;;;;;;;-11.71;66.47;99433.44;4995739;28;20768;-74
2024/01/19 05:15:32;;;;;;;2.47;0.20;;;;;;;-11.73;66.56;99436.69;5002827;28;20065;-76
2024/01/19 05:18:00;;;;;;;1.95;0.10;;;;;;;-11.78;66.61;99439.03;5000041;28;20196;-76
2024/01/19 05:20:27;;;;;;;0.30;0.10;;;;;;;-11.82;66.81;99437.16;5001310;28;20057;-75
2024/01/19 05:22:54;;;;;;;0.35;0.10;;;;;;;-11.86;66.62;99450.44;5004119;28;20061;-75
2024/01/19 05:25:21;;;;;;;1.65;0.20;;;;;;;-11.89;66.58;99445.25;5000866;28;20104;-75
2024/01/19 05:27:51;;;;;;;0.80;0.20;;;;;;;-11.94;66.28;99451.75;5004785;28;20125;-75
2024/01/19 05:30:18;;;;;;;1.02;0.20;;;;;;;-11.95;66.44;99470.19;5002846;28;20056;-77
2024/01/19 05:32:45;;;;;;;2.38;0.20;;;;;;;-12.02;66.61;99464.00;5003325;28;20053;-77
2024/01/19 05:35:13;;;;;;;1.60;0.20;;;;;;;-12.03;66.36;99476.53;5004992;28;20084;-78
2024/01/19 05:37:40;;;;;;;1.27;0.38;;;;;;;-12.06;66.36;99478.94;5008240;28;20201;-78
2024/01/19 05:40:08;;;;;;;2.67;0.30;;;;;;;-12.12;66.03;99477.84;5001398;28;20046;-73
2024/01/19 05:42:35;;;;;;;0.70;0.20;;;;;;;-12.11;66.38;99479.56;4999124;28;20050;-74
2024/01/19 05:45:02;;;;;;;0.52;0.32;;;;;;;-12.12;66.58;99472.81;4969161;28;20152;-73
2024/01/19 05:47:29;;;;;;;1.10;0.98;;;;;;;-12.14;66.38;99473.53;5001697;28;20046;-73
2024/01/19 05:49:56;;;;;;;4.70;0.47;;;;;;;-12.16;66.26;99472.56;4999756;28;20131;-71
2024/01/19 05:52:25;;;;;;;1.40;0.40;;;;;;;-12.16;66.45;99483.50;4968493;28;20149;-73
2024/01/19 05:54:52;;;;;;;1.92;0.60;;;;;;;-12.17;66.45;99489.38;5002143;28;20050;-73
2024/01/19 05:57:19;;;;;;;3.33;0.43;;;;;;;-12.19;66.50;99480.84;4997242;28;20137;-73
2024/01/19 05:59:46;;;;;;;0.70;0.40;;;;;;;-12.21;66.27;99482.47;5002468;28;20101;-73
2024/01/19 06:02:13;;;;;;;69.30;29.92;;;;;;;-12.23;66.31;99493.25;4999335;28;20093;-73
2024/01/19 06:04:41;;;;;;;42.95;20.27;;;;;;;-12.25;66.41;99500.75;4999491;28;20540;-74
2024/01/19 06:07:08;;;;;;;16.08;7.32;;;;;;;-12.29;66.66;99503.91;4999040;28;20047;-73
2024/01/19 06:09:36;;;;;;;2.45;1.05;;;;;;;-12.31;66.66;99513.06;5000751;28;20133;-73
2024/01/19 06:12:03;;;;;;;4.85;0.95;;;;;;;-12.32;66.28;99517.22;5000691;28;20125;-73
2024/01/19 06:14:31;;;;;;;2.78;0.57;;;;;;;-12.33;66.22;99524.72;5002323;28;20128;-73
2024/01/19 06:16:58;;;;;;;4.78;1.13;;;;;;;-12.36;66.57;99522.91;4997644;28;20527;-72
2024/01/19 06:19:24;;;;;;;1.90;0.63;;;;;;;-12.40;66.19;99523.56;4994635;28;20125;-73
2024/01/19 06:21:51;;;;;;;2.85;1.17;;;;;;;-12.38;66.23;99526.16;5000251;28;20129;-73
2024/01/19 06:24:18;;;;;;;3.00;0.85;;;;;;;-12.40;66.38;99541.19;4995468;28;20133;-72
2024/01/19 06:26:48;;;;;;;2.83;0.43;;;;;;;-12.42;66.57;99529.31;4999679;28;20137;-72
2024/01/19 06:29:15;;;;;;;2.30;0.40;;;;;;;-12.42;66.45;99536.88;5000677;28;20145;-73
2024/01/19 06:31:46;;;;;;;1.83;0.47;;;;;;;-12.45;66.19;99531.69;4996874;28;20093;-74
2024/01/19 06:34:12;;;;;;;6.60;2.08;;;;;;;-12.44;66.44;99535.91;4997953;28;20157;-73
2024/01/19 06:36:39;;;;;;;6.80;2.53;;;;;;;-12.44;66.46;99556.09;4999808;28;20168;-73
2024/01/19 06:39:07;;;;;;;12.00;2.15;;;;;;;-12.46;66.30;99548.47;4998314;28;20074;-77
2024/01/19 06:41:34;;;;;;;9.43;2.45;;;;;;;-12.47;66.52;99548.38;5000500;28;20050;-77
2024/01/19 06:44:05;;;;;;;2.28;0.63;;;;;;;-12.46;66.71;99553.50;5001492;28;20054;-75
2024/01/19 06:46:32;;;;;;;1.30;0.82;;;;;;;-12.47;66.71;99555.94;5004244;28;20053;-77
2024/01/19 06:48:59;;;;;;;3.35;0.70;;;;;;;-12.49;66.47;99565.09;4995577;28;20085;-80
2024/01/19 06:51:28;;;;;;;4.03;0.40;;;;;;;-12.56;66.43;99561.38;5011997;28;20137;-80
2024/01/19 06:53:55;;;;;;;3.42;0.50;;;;;;;-12.57;66.42;99563.03;4999340;28;20576;-80
2024/01/19 06:56:22;;;;;;;2.13;0.38;;;;;;;-12.53;66.87;99574.13;5008112;28;20077;-76
2024/01/19 06:58:49;;;;;;;0.60;0.30;;;;;;;-12.53;66.60;99576.66;4998063;28;20077;-78
2024/01/19 07:01:18;;;;;;;1.25;0.45;;;;;;;-12.53;66.65;99578.31;5001064;28;20213;-77
2024/01/19 07:03:45;;;;;;;1.55;0.52;;;;;;;-12.55;66.33;99575.72;4997751;28;20049;-77
2024/01/19 07:06:12;;;;;;;0.80;0.30;;;;;;;-12.56;66.55;99584.91;4997896;28;20219;-77
2024/01/19 07:08:38;;;;;;;2.13;0.30;;;;;;;-12.57;66.54;99578.16;4999640;28;20133;-76
2024/01/19 07:11:05;;;;;;;3.35;0.25;;;;;;;-12.57;66.45;99577.31;4999923;28;20145;-77
2024/01/19 07:13:32;;;;;;;0.52;0.35;;;;;;;-12.59;66.88;99576.34;4998757;28;20144;-76
2024/01/19 07:16:00;;;;;;;0.63;0.30;;;;;;;-12.58;66.39;99585.66;4999155;28;20137;-77
2024/01/19 07:18:28;;;;;;;1.85;0.20;;;;;;;-12.59;66.38;99588.94;4998388;28;21694;-80
2024/01/19 07:20:55;;;;;;;1.15;0.30;;;;;;;-12.59;66.29;99584.78;5002184;28;20141;-78
2024/01/19 07:23:22;;;;;;;1.48;0.30;;;;;;;-12.59;66.62;99594.84;5001135;28;20049;-77
2024/01/19 07:25:49;;;;;;;0.80;0.40;;;;;;;-12.59;66.46;99599.88;4998432;28;20605;-77
2024/01/19 07:28:16;;;;;;;3.58;0.20;;;;;;;-12.58;66.34;99596.59;4995677;28;20124;-77
2024/01/19 07:30:43;;;;;;;6.47;0.50;;;;;;;-12.59;66.44;99599.88;5000504;28;20599;-77
2024/01/19 07:33:10;;;;;;;3.45;0.40;;;;;;;-12.58;66.49;99595.75;4998118;28;20133;-86
2024/01/19 07:35:39;;;;;;;4.25;0.43;;;;;;;-12.59;66.31;99589.81;4998314;28;20151;-77
2024/01/19 07:38:06;;;;;;;4.65;0.63;;;;;;;-12.58;66.30;99593.22;5001539;28;20050;-80
2024/01/19 07:40:33;;;;;;;0.40;0.30;;;;;;;-12.58;66.80;99601.63;5003460;28;20137;-78
2024/01/19 07:43:00;;;;;;;1.92;0.70;;;;;;;-12.59;66.58;99604.06;4997977;28;20057;-74
2024/01/19 07:45:27;;;;;;;1.15;0.35;;;;;;;-12.60;66.38;99608.25;4998051;28;20576;-76
2024/01/19 07:47:54;;;;;;;1.20;0.45;;;;;;;-12.59;66.51;99611.63;4997375;28;20144;-76
2024/01/19 07:50:22;;;;;;;3.17;0.70;;;;;;;-12.61;66.79;99604.00;4998348;28;20128;-74
2024/01/19 07:52:50;;;;;;;3.55;1.00;;;;;;;-12.61;66.70;99611.56;5000291;28;20077;-76
2024/01/19 07:55:17;;;;;;;2.35;1.13;;;;;;;-12.63;66.45;99620.69;5003301;28;20134;-76
2024/01/19 07:57:44;;;;;;;4.15;0.50;;;;;;;-12.61;66.59;99618.22;4998945;28;20050;-72
2024/01/19 08:00:12;;;;;;;4.35;0.60;;;;;;;-12.62;66.52;99609.81;4999504;28;20126;-74
2024/01/19 08:02:40;;;;;;;1.83;0.30;;;;;;;-12.63;66.83;99623.22;4999503;28;20096;-74
2024/01/19 08:05:07;;;;;;;2.35;0.40;;;;;;;-12.66;66.44;99605.41;4996326;28;20061;-73
2024/01/19 08:07:34;;;;;;;2.47;0.40;;;;;;;-12.75;66.49;99604.97;5000221;28;20125;-78
2024/01/19 08:10:03;;;;;;;1.10;0.50;;;;;;;-12.65;66.41;99622.25;5005139;28;20096;-81
2024/01/19 08:12:29;;;;;;;1.63;0.40;;;;;;;-12.65;66.53;99634.00;5006127;28;20050;-78
2024/01/19 08:14:57;;;;;;;0.75;0.30;;;;;;;-12.67;66.54;99631.38;5001565;28;20575;-77
2024/01/19 08:17:24;;;;;;;1.85;0.60;;;;;;;-12.69;66.41;99630.44;5006507;28;21055;-76
2024/01/19 08:19:51;;;;;;;1.52;0.38;;;;;;;-12.70;66.54;99641.28;5012402;28;20469;-74
2024/01/19 08:22:18;;;;;;;2.83;0.30;;;;;;;-12.69;66.28;99642.19;4998302;28;20127;-73
2024/01/19 08:24:45;;;;;;;1.23;0.32;;;;;;;-12.70;66.42;99645.47;4999492;28;20196;-75
2024/01/19 08:27:13;;;;;;;1.42;0.30;;;;;;;-12.72;66.32;99652.06;5003183;28;20149;-75
2024/01/19 08:29:40;;;;;;;0.85;0.20;;;;;;;-12.73;66.51;99671.38;5004027;28;20118;-75
2024/01/19 08:32:07;;;;;;;0.98;0.35;;;;;;;-12.73;66.76;99671.38;5004173;28;20129;-75
2024/01/19 08:34:34;;;;;;;1.25;0.30;;;;;;;-12.75;66.37;99688.06;5009579;28;20133;-78
2024/01/19 08:37:01;;;;;;;1.50;0.35;;;;;;;-12.74;66.66;99686.41;4999117;28;20536;-75
2024/01/19 08:39:28;;;;;;;0.43;0.30;;;;;;;-12.75;66.49;99693.13;5005385;28;20068;-79
2024/01/19 08:41:55;;;;;;;3.63;0.57;;;;;;;-12.78;66.24;99698.84;5003123;28;20128;-75
2024/01/19 08:44:23;;;;;;;2.85;1.13;;;;;;;-12.79;66.58;99704.66;4999526;28;20133;-76
2024/01/19 08:46:50;;;;;;;2.15;0.70;;;;;;;-12.79;66.41;99711.34;5002321;28;20121;-76
2024/01/19 08:49:17;;;;;;;0.82;0.28;;;;;;;-12.80;66.54;99725.59;5003648;28;20128;-76
2024/01/19 08:51:47;;;;;;;4.85;0.70;;;;;;;-12.82;66.37;99734.72;5003684;28;20556;-75
2024/01/19 08:54:16;;;;;;;2.67;0.30;;;;;;;-12.82;66.41;99731.34;5002980;28;20045;-75
2024/01/19 08:56:43;;;;;;;1.33;0.47;;;;;;;-12.84;66.28;99737.94;5004041;28;20065;-75
2024/01/19 08:59:10;;;;;;;4.30;1.08;;;;;;;-12.85;66.38;99729.53;4998654;28;20136;-74
2024/01/19 09:01:38;;;;;;;4.05;0.50;;;;;;;-12.86;66.40;99732.00;5003853;28;20142;-72
2024/01/19 09:04:05;;;;;;;4.88;0.85;;;;;;;-12.85;66.50;99741.28;5001054;28;20046;-72
2024/01/19 09:06:32;;;;;;;7.70;1.17;;;;;;;-12.87;66.31;99732.78;4998832;28;20483;-73
2024/01/19 09:09:01;;;;;;;18.27;4.53;;;;;;;-12.88;66.31;99741.13;4999747;28;20125;-73
2024/01/19 09:11:28;;;;;;;12.43;3.72;;;;;;;-12.87;66.47;99747.88;5000216;28;20061;-72
2024/01/19 09:13:55;;;;;;;6.38;2.00;;;;;;;-12.88;66.42;99748.69;5003174;28;20133;-75
2024/01/19 09:16:22;;;;;;;10.27;2.72;;;;;;;-12.87;66.41;99753.78;4998335;28;20133;-74
2024/01/19 09:18:50;;;;;;;8.82;2.38;;;;;;;-12.87;66.36;99752.91;4998110;28;20125;-73
2024/01/19 09:21:18;;;;;;;5.53;1.33;;;;;;;-12.86;66.46;99749.63;5002665;28;20077;-75
2024/01/19 09:23:45;;;;;;;5.22;1.38;;;;;;;-12.86;66.36;99752.16;5010709;28;20049;-78
2024/01/19 09:26:18;;;;;;;8.75;1.17;;;;;;;-12.85;66.43;99758.91;5000484;28;20133;-76
2024/01/19 09:28:45;;;;;;;3.60;1.08;;;;;;;-12.85;66.41;99763.94;5002495;28;20062;-75
2024/01/19 09:31:12;;;;;;;3.72;0.80;;;;;;;-12.85;66.41;99761.44;5002149;28;20508;-74
2024/01/19 09:33:39;;;;;;;9.90;1.95;;;;;;;-12.84;66.57;99760.59;5002609;28;20121;-74
2024/01/19 09:36:08;;;;;;;5.68;1.95;;;;;;;-12.83;66.49;99759.84;5002588;28;20084;-74
2024/01/19 09:38:37;;;;;;;5.05;1.35;;;;;;;-12.87;66.47;99756.28;5001500;28;20476;-74
2024/01/19 09:41:12;;;;;;;6.88;1.50;;;;;;;-12.83;66.37;99770.78;5003694;28;21001;-75
2024/01/19 09:43:42;;;;;;;8.00;1.98;;;;;;;-12.81;66.44;99773.34;5002039;28;20125;-75
2024/01/19 09:46:17;;;;;;;4.97;0.90;;;;;;;-12.80;66.51;99775.13;5000386;28;20086;-76
2024/01/19 09:48:57;;;;;;;2.70;0.52;;;;;;;-12.81;66.50;99781.81;4991541;28;20137;-75
2024/01/19 09:51:35;;;;;;;4.28;0.85;;;;;;;-12.86;66.04;99775.69;4980231;28;20088;-76
2024/01/19 09:54:06;;;;;;;2.30;0.45;;;;;;;-12.83;66.29;99782.50;4981056;28;20557;-75
2024/01/19 09:56:33;;;;;;;3.33;0.70;;;;;;;-12.85;66.25;99794.16;4984560;28;20050;-77
2024/01/19 09:59:00;;;;;;;1.75;0.45;;;;;;;-12.88;66.21;99786.44;4984649;28;20065;-77
2024/01/19 10:01:27;;;;;;;4.10;0.52;;;;;;;-12.88;66.22;99791.50;4979383;28;20133;-73
2024/01/19 10:03:58;;;;;;;2.58;0.60;;;;;;;-12.88;66.26;99799.03;4978994;28;20097;-75
2024/01/19 10:06:27;;;;;;;4.60;1.00;;;;;;;-12.87;66.20;99798.25;4982100;28;20525;-76
2024/01/19 10:08:56;;;;;;;3.38;0.90;;;;;;;-12.87;66.24;99808.31;4983041;28;20145;-77
2024/01/19 10:11:24;;;;;;;4.60;0.90;;;;;;;-12.86;66.35;99807.56;4982067;28;20138;-74
2024/01/19 10:13:51;;;;;;;3.92;0.77;;;;;;;-12.85;66.29;99819.34;4979569;28;20046;-74
2024/01/19 10:16:17;;;;;;;3.33;0.57;;;;;;;-12.85;66.28;99816.84;4978068;28;20082;-72
2024/01/19 10:18:45;;;;;;;1.50;0.52;;;;;;;-12.83;66.26;99827.84;4981401;28;20134;-85
2024/01/19 10:21:13;;;;;;;3.83;0.50;;;;;;;-12.82;66.14;99829.56;4988628;28;20078;-78
2024/01/19 10:23:43;;;;;;;3.35;0.60;;;;;;;-12.83;66.17;99837.91;4984902;28;20053;-75
2024/01/19 10:26:14;;;;;;;1.27;0.50;;;;;;;-12.84;65.93;99831.13;4979891;28;20059;-75
2024/01/19 10:28:41;;;;;;;4.28;0.57;;;;;;;-12.80;66.26;99845.63;4979579;28;20145;-77
2024/01/19 10:31:21;;;;;;;2.85;0.50;;;;;;;-12.81;66.19;99838.84;4986216;28;20489;-78
2024/01/19 10:33:52;;;;;;;2.10;0.40;;;;;;;-12.76;66.29;99837.44;4983575;28;20058;-78
2024/01/19 10:36:20;;;;;;;2.20;0.77;;;;;;;-12.73;66.18;99852.72;4986730;28;20536;-78
2024/01/19 10:38:48;;;;;;;3.42;0.77;;;;;;;-12.70;66.26;99854.56;4984260;28;20541;-78
2024/01/19 10:41:16;;;;;;;2.05;0.63;;;;;;;-12.67;66.23;99853.06;4981948;28;20054;-78
2024/01/19 10:43:43;;;;;;;1.90;0.70;;;;;;;-12.62;66.25;99860.88;4985902;28;20046;-78
2024/01/19 10:46:21;;;;;;;4.50;1.20;;;;;;;-12.59;66.45;99858.53;4989713;28;20081;-77
2024/01/19 10:48:50;;;;;;;4.70;1.25;;;;;;;-12.56;66.61;99867.13;4981053;28;20061;-78
2024/01/19 10:51:19;;;;;;;3.55;0.68;;;;;;;-12.51;66.30;99874.06;4977086;28;20051;-78
2024/01/19 10:53:47;;;;;;;9.90;0.60;;;;;;;-12.49;66.45;99868.34;4985034;28;20054;-78
2024/01/19 10:56:21;;;;;;;3.70;1.17;;;;;;;-12.45;66.23;99875.25;4980037;28;20129;-78
2024/01/19 10:58:48;;;;;;;4.90;0.98;;;;;;;-12.44;66.19;99876.13;4987748;28;20632;-77
2024/01/19 11:01:15;;;;;;;6.30;1.85;;;;;;;-12.38;66.39;99887.44;4984721;28;20548;-78
2024/01/19 11:03:43;;;;;;;3.17;0.73;;;;;;;-12.33;66.30;99897.75;4984666;28;20133;-76
2024/01/19 11:06:11;;;;;;;2.33;0.50;;;;;;;-12.30;66.16;99887.81;4991384;28;20416;-76
2024/01/19 11:08:39;;;;;;;3.20;1.02;;;;;;;-12.26;66.44;99889.75;4980681;28;20824;-78
2024/01/19 11:11:07;;;;;;;7.10;0.70;;;;;;;-12.21;66.58;99903.47;4991743;28;20137;-76
2024/01/19 11:13:38;;;;;;;0.88;0.50;;;;;;;-12.18;66.35;99908.66;4982124;28;20042;-77
2024/01/19 11:16:11;;;;;;;5.43;0.75;;;;;;;-12.14;66.43;99902.13;4985576;28;20054;-77
2024/01/19 11:18:41;;;;;;;5.78;0.90;;;;;;;-12.14;66.32;99897.94;4982735;28;20054;-77
2024/01/19 11:21:09;;;;;;;3.75;0.82;;;;;;;-12.06;66.58;99902.56;4987245;28;20070;-83
2024/01/19 11:23:37;;;;;;;3.30;0.63;;;;;;;-12.03;66.58;99910.28;4979594;28;20054;-83
2024/01/19 11:26:14;;;;;;;2.30;0.55;;;;;;;-11.99;66.46;99912.16;4986762;28;20063;-82
2024/01/19 11:28:52;;;;;;;3.85;0.70;;;;;;;-11.98;66.52;99909.75;4989740;28;20130;-78